<?xml version="1.0" encoding="UTF-8" standalone="no" ?>
<gpx xmlns="http://www.topografix.com/GPX/1/1" xmlns:xsi="http://www.w3.org/2001/XMLSchema-instance" xsi:schemaLocation="http://www.topografix.com/GPX/1/1 http://www.topografix.com/GPX/1/1/gpx.xsd" version="1.1" creator="VisuGPX - https://www.visugpx.com">
  <metadata>
    <name>Raid VTT IFV 2022 de l'enfer</name>
    <desc><![CDATA[Tracé du raid avec le découpage en segments de guidage individuels avec thème d'animation imposé]]></desc>
  </metadata>
  <trk>
    <name><![CDATA[J1 - RUN 4 - Clément]]></name>
    <desc><![CDATA[Physio : les différents stades de l'effort]]></desc>
    <extensions>
      <line xmlns="http://www.topografix.com/GPX/gpx_style/0/2">
        <color>00FFFF</color>
        <width>4</width>
          <extensions>
            <sens>1</sens>
          </extensions>
      </line>
    </extensions>
    <trkseg>
      <trkpt lat="44.07525" lon="6.57395">
        <ele>1171</ele>
        <time>2021-11-15T19:00:09Z</time>
      </trkpt>
      <trkpt lat="44.07516" lon="6.57422">
        <ele>1180</ele>
        <time>2021-11-15T19:00:14Z</time>
      </trkpt>
      <trkpt lat="44.07476" lon="6.57489">
        <ele>1192</ele>
        <time>2021-11-15T19:00:29Z</time>
      </trkpt>
      <trkpt lat="44.07478" lon="6.57492">
        <ele>1194</ele>
        <time>2021-11-15T19:00:29Z</time>
      </trkpt>
      <trkpt lat="44.07535" lon="6.57456">
        <ele>1200</ele>
        <time>2021-11-15T19:00:44Z</time>
      </trkpt>
      <trkpt lat="44.07497" lon="6.57527">
        <ele>1217</ele>
        <time>2021-11-15T19:00:59Z</time>
      </trkpt>
      <trkpt lat="44.07472" lon="6.5758">
        <ele>1234</ele>
        <time>2021-11-15T19:01:09Z</time>
      </trkpt>
      <trkpt lat="44.07466" lon="6.57591">
        <ele>1237</ele>
        <time>2021-11-15T19:01:12Z</time>
      </trkpt>
      <trkpt lat="44.07416" lon="6.57639">
        <ele>1245</ele>
        <time>2021-11-15T19:01:26Z</time>
      </trkpt>
      <trkpt lat="44.07389" lon="6.57669">
        <ele>1251</ele>
        <time>2021-11-15T19:01:34Z</time>
      </trkpt>
      <trkpt lat="44.07427" lon="6.57664">
        <ele>1261</ele>
        <time>2021-11-15T19:01:43Z</time>
      </trkpt>
      <trkpt lat="44.07457" lon="6.57665">
        <ele>1269</ele>
        <time>2021-11-15T19:01:50Z</time>
      </trkpt>
      <trkpt lat="44.07437" lon="6.57678">
        <ele>1270</ele>
        <time>2021-11-15T19:01:55Z</time>
      </trkpt>
      <trkpt lat="44.0739" lon="6.57721">
        <ele>1273</ele>
        <time>2021-11-15T19:02:08Z</time>
      </trkpt>
      <trkpt lat="44.07373" lon="6.57739">
        <ele>1273</ele>
        <time>2021-11-15T19:02:13Z</time>
      </trkpt>
      <trkpt lat="44.07362" lon="6.57759">
        <ele>1273</ele>
        <time>2021-11-15T19:02:17Z</time>
      </trkpt>
      <trkpt lat="44.07362" lon="6.57789">
        <ele>1276</ele>
        <time>2021-11-15T19:02:22Z</time>
      </trkpt>
      <trkpt lat="44.07376" lon="6.57836">
        <ele>1290</ele>
        <time>2021-11-15T19:02:31Z</time>
      </trkpt>
      <trkpt lat="44.0738" lon="6.57863">
        <ele>1296</ele>
        <time>2021-11-15T19:02:36Z</time>
      </trkpt>
      <trkpt lat="44.0738" lon="6.57882">
        <ele>1299</ele>
        <time>2021-11-15T19:02:39Z</time>
      </trkpt>
      <trkpt lat="44.07371" lon="6.57919">
        <ele>1297</ele>
        <time>2021-11-15T19:02:45Z</time>
      </trkpt>
      <trkpt lat="44.07371" lon="6.57936">
        <ele>1300</ele>
        <time>2021-11-15T19:02:48Z</time>
      </trkpt>
      <trkpt lat="44.07377" lon="6.57977">
        <ele>1311</ele>
        <time>2021-11-15T19:02:55Z</time>
      </trkpt>
      <trkpt lat="44.07378" lon="6.58022">
        <ele>1320</ele>
        <time>2021-11-15T19:03:03Z</time>
      </trkpt>
      <trkpt lat="44.07375" lon="6.58053">
        <ele>1323</ele>
        <time>2021-11-15T19:03:08Z</time>
      </trkpt>
      <trkpt lat="44.07381" lon="6.58138">
        <ele>1339</ele>
        <time>2021-11-15T19:03:22Z</time>
      </trkpt>
      <trkpt lat="44.07384" lon="6.58142">
        <ele>1342</ele>
        <time>2021-11-15T19:03:23Z</time>
      </trkpt>
      <trkpt lat="44.0739" lon="6.58109">
        <ele>1341</ele>
        <time>2021-11-15T19:03:29Z</time>
      </trkpt>
      <trkpt lat="44.0741" lon="6.58046">
        <ele>1345</ele>
        <time>2021-11-15T19:03:41Z</time>
      </trkpt>
      <trkpt lat="44.07415" lon="6.5804">
        <ele>1348</ele>
        <time>2021-11-15T19:03:42Z</time>
      </trkpt>
      <trkpt lat="44.07412" lon="6.58054">
        <ele>1347</ele>
        <time>2021-11-15T19:03:45Z</time>
      </trkpt>
      <trkpt lat="44.07411" lon="6.58082">
        <ele>1350</ele>
        <time>2021-11-15T19:03:49Z</time>
      </trkpt>
      <trkpt lat="44.07418" lon="6.58152">
        <ele>1367</ele>
        <time>2021-11-15T19:04:01Z</time>
      </trkpt>
      <trkpt lat="44.07414" lon="6.58219">
        <ele>1372</ele>
        <time>2021-11-15T19:04:12Z</time>
      </trkpt>
      <trkpt lat="44.07415" lon="6.58259">
        <ele>1375</ele>
        <time>2021-11-15T19:04:19Z</time>
      </trkpt>
      <trkpt lat="44.07419" lon="6.58292">
        <ele>1380</ele>
        <time>2021-11-15T19:04:25Z</time>
      </trkpt>
      <trkpt lat="44.07426" lon="6.58316">
        <ele>1387</ele>
        <time>2021-11-15T19:04:29Z</time>
      </trkpt>
      <trkpt lat="44.07445" lon="6.58353">
        <ele>1405</ele>
        <time>2021-11-15T19:04:37Z</time>
      </trkpt>
      <trkpt lat="44.07442" lon="6.58363">
        <ele>1406</ele>
        <time>2021-11-15T19:04:39Z</time>
      </trkpt>
      <trkpt lat="44.07423" lon="6.58374">
        <ele>1395</ele>
        <time>2021-11-15T19:04:43Z</time>
      </trkpt>
      <trkpt lat="44.07406" lon="6.58399">
        <ele>1391</ele>
        <time>2021-11-15T19:04:49Z</time>
      </trkpt>
      <trkpt lat="44.07391" lon="6.58433">
        <ele>1391</ele>
        <time>2021-11-15T19:04:56Z</time>
      </trkpt>
      <trkpt lat="44.07387" lon="6.58455">
        <ele>1395</ele>
        <time>2021-11-15T19:05:00Z</time>
      </trkpt>
      <trkpt lat="44.07385" lon="6.58499">
        <ele>1405</ele>
        <time>2021-11-15T19:05:07Z</time>
      </trkpt>
      <trkpt lat="44.07387" lon="6.58517">
        <ele>1408</ele>
        <time>2021-11-15T19:05:10Z</time>
      </trkpt>
      <trkpt lat="44.07383" lon="6.58621">
        <ele>1411</ele>
        <time>2021-11-15T19:05:28Z</time>
      </trkpt>
      <trkpt lat="44.07406" lon="6.58726">
        <ele>1426</ele>
        <time>2021-11-15T19:05:46Z</time>
      </trkpt>
      <trkpt lat="44.07413" lon="6.58741">
        <ele>1431</ele>
        <time>2021-11-15T19:05:49Z</time>
      </trkpt>
      <trkpt lat="44.07422" lon="6.58797">
        <ele>1436</ele>
        <time>2021-11-15T19:05:59Z</time>
      </trkpt>
      <trkpt lat="44.07424" lon="6.58784">
        <ele>1437</ele>
        <time>2021-11-15T19:06:01Z</time>
      </trkpt>
      <trkpt lat="44.07426" lon="6.58786">
        <ele>1439</ele>
        <time>2021-11-15T19:06:01Z</time>
      </trkpt>
      <trkpt lat="44.07442" lon="6.58873">
        <ele>1449</ele>
        <time>2021-11-15T19:06:16Z</time>
      </trkpt>
      <trkpt lat="44.0745" lon="6.58898">
        <ele>1455</ele>
        <time>2021-11-15T19:06:21Z</time>
      </trkpt>
      <trkpt lat="44.07452" lon="6.58896">
        <ele>1456</ele>
        <time>2021-11-15T19:06:22Z</time>
      </trkpt>
    </trkseg>
  </trk>
</gpx>